Terre Haute, Indiana
Current Conditions -  °F | °C
As of 7:53 PM on Monday 22 Dec 2014 (Local Time) from KHUF Reporting Station
Light Rain Light Rain  
Wind Chill: 42°   Ceiling: 2100
Heat Index: 46°   Visibility: 7mi
Dew Point: 43°   Wind: 8mph
Humidity: 89%   Direction: 130°SE
Pressure: 29.65"   Gusts: NA
Location:  39.47°N, 87.41°W
Report Text: KHUF 230053Z 13007KT 7SM -RA BKN021 OVC029 08/06 A2965 RMK AO2 SLP045 P0001 T00780061
Loading
Personal Weather Stations






























Interactive Weather Map New forecast layout! Learn more

10-Day Weather Forecast

Advertisements
Track Severe Weather on mobile